Time;durP1;ratioP1;P1;durP2;ratioP2;P2;SDS_P1;SDS_P2;PMS_P1;PMS_P2;Temp;Humidity;BMP_temperature;BMP_pressure;BME280_temperature;BME280_humidity;BME280_pressure;Samples;Min_cycle;Max_cycle;Signal;HPM_P1;HPM_P2
2022/07/14 00:01:01;;;;;;;3.15;1.48;;;24.70;49.70;;;;;;5045403;28;20514;-78
2022/07/14 00:03:26;;;;;;;3.85;1.40;;;24.70;49.40;;;;;;5038721;28;20040;-79
2022/07/14 00:05:52;;;;;;;4.28;1.80;;;24.70;49.10;;;;;;5037583;28;20045;-78
2022/07/14 00:08:18;;;;;;;3.45;1.90;;;24.70;48.90;;;;;;5038631;28;20033;-78
2022/07/14 00:10:44;;;;;;;2.53;1.55;;;24.70;49.40;;;;;;5038709;28;20021;-78
2022/07/14 00:13:10;;;;;;;3.10;1.80;;;24.70;49.40;;;;;;5051212;28;20044;-78
2022/07/14 00:15:36;;;;;;;4.35;1.42;;;24.60;49.50;;;;;;5039511;28;20057;-78
2022/07/14 00:18:02;;;;;;;3.17;1.63;;;24.60;49.70;;;;;;5050427;28;20482;-78
2022/07/14 00:20:28;;;;;;;4.63;1.60;;;24.50;49.80;;;;;;5043133;28;20037;-78
2022/07/14 00:22:57;;;;;;;4.25;1.80;;;24.50;49.70;;;;;;5038515;28;20100;-78
2022/07/14 00:25:26;;;;;;;3.72;1.67;;;24.40;49.80;;;;;;5038315;28;20017;-78
2022/07/14 00:27:52;;;;;;;2.63;1.40;;;24.30;50.40;;;;;;5038282;28;20022;-77
2022/07/14 00:30:18;;;;;;;3.13;1.65;;;24.30;50.40;;;;;;5038404;28;20040;-78
2022/07/14 00:32:44;;;;;;;7.00;1.80;;;24.30;50.50;;;;;;5038245;28;20025;-78
2022/07/14 00:35:10;;;;;;;3.50;1.77;;;24.30;50.40;;;;;;5038435;28;20045;-78
2022/07/14 00:37:35;;;;;;;2.95;1.55;;;24.30;50.70;;;;;;5038083;28;20052;-78
2022/07/14 00:40:06;;;;;;;6.15;1.77;;;24.30;51.00;;;;;;5038274;28;20087;-78
2022/07/14 00:42:33;;;;;;;3.22;1.65;;;24.20;50.80;;;;;;5038027;28;20040;-78
2022/07/14 00:45:04;;;;;;;4.10;1.63;;;24.10;50.90;;;;;;5037930;28;20566;-78
2022/07/14 00:47:29;;;;;;;6.90;1.90;;;24.10;51.30;;;;;;5038176;28;20053;-77
2022/07/14 00:49:56;;;;;;;4.22;1.80;;;23.90;51.60;;;;;;5038141;28;20052;-78
2022/07/14 00:52:23;;;;;;;3.67;1.70;;;23.90;51.40;;;;;;5038036;28;20410;-78
2022/07/14 00:54:49;;;;;;;3.90;1.88;;;23.90;51.70;;;;;;5036562;28;20030;-78
2022/07/14 00:57:15;;;;;;;3.40;2.05;;;23.80;52.00;;;;;;5037794;28;20127;-78
2022/07/14 00:59:40;;;;;;;3.13;1.95;;;23.80;52.20;;;;;;5038080;28;20037;-78
2022/07/14 01:02:06;;;;;;;5.35;2.42;;;23.80;52.30;;;;;;5056432;28;20056;-78
2022/07/14 01:04:32;;;;;;;4.38;2.05;;;23.70;52.90;;;;;;5054757;28;20067;-77
2022/07/14 01:06:57;;;;;;;5.05;2.13;;;23.60;53.30;;;;;;5052795;28;20025;-78
2022/07/14 01:09:23;;;;;;;7.25;2.40;;;23.50;53.40;;;;;;5044591;28;20041;-78
2022/07/14 01:11:48;;;;;;;3.25;2.15;;;23.50;53.80;;;;;;5055037;28;20055;-78
2022/07/14 01:14:14;;;;;;;3.83;2.00;;;23.40;53.80;;;;;;5057341;28;20029;-79
2022/07/14 01:16:40;;;;;;;5.15;2.40;;;23.40;54.00;;;;;;5057247;28;20453;-78
2022/07/14 01:19:06;;;;;;;2.92;2.05;;;23.40;54.00;;;;;;5052022;28;20216;-77
2022/07/14 01:21:31;;;;;;;4.53;2.20;;;23.30;54.10;;;;;;5043992;28;20120;-78
2022/07/14 01:23:57;;;;;;;2.95;2.17;;;23.30;54.00;;;;;;5057284;28;20021;-78
2022/07/14 01:26:24;;;;;;;4.03;2.25;;;23.30;54.40;;;;;;5042662;28;20025;-78
2022/07/14 01:28:50;;;;;;;6.22;2.78;;;23.30;54.80;;;;;;5037274;28;20025;-78
2022/07/14 01:31:18;;;;;;;3.70;2.10;;;23.30;55.10;;;;;;5037361;28;20099;-78
2022/07/14 01:33:43;;;;;;;4.80;2.83;;;23.20;55.60;;;;;;5036760;28;20037;-78
2022/07/14 01:36:09;;;;;;;5.13;2.90;;;23.10;55.70;;;;;;5037195;28;20451;-78
2022/07/14 01:38:35;;;;;;;7.05;3.13;;;23.00;56.80;;;;;;5037134;28;20472;-78
2022/07/14 01:41:00;;;;;;;4.22;3.00;;;22.90;57.20;;;;;;5037041;28;20038;-78
2022/07/14 01:43:26;;;;;;;4.88;3.35;;;22.90;57.50;;;;;;5036848;28;20079;-78
2022/07/14 01:45:52;;;;;;;6.03;2.88;;;22.90;57.00;;;;;;5037015;28;20033;-78
2022/07/14 01:48:20;;;;;;;5.53;3.10;;;22.90;57.10;;;;;;5037070;28;20032;-78
2022/07/14 01:50:46;;;;;;;4.15;2.88;;;22.90;57.90;;;;;;5035621;28;20176;-78
2022/07/14 01:53:13;;;;;;;3.88;3.13;;;22.80;57.70;;;;;;5036510;28;20075;-77
2022/07/14 01:55:39;;;;;;;5.53;3.58;;;22.80;58.30;;;;;;5036721;28;20550;-78
2022/07/14 01:58:04;;;;;;;7.18;2.83;;;22.80;58.70;;;;;;5043449;28;20029;-77
2022/07/14 02:00:30;;;;;;;8.00;3.50;;;22.70;59.00;;;;;;5054017;28;20032;-77
2022/07/14 02:02:56;;;;;;;7.47;3.47;;;22.70;59.50;;;;;;5036680;28;20053;-78
2022/07/14 02:05:21;;;;;;;5.65;2.83;;;22.70;59.20;;;;;;5036778;28;20053;-78
2022/07/14 02:07:47;;;;;;;7.75;3.80;;;22.70;59.10;;;;;;5036209;28;20555;-77
2022/07/14 02:12:57;;;;;;;7.70;3.60;;;22.70;59.50;;;;;;5036670;28;20083;-77
2022/07/14 02:15:23;;;;;;;5.05;3.17;;;22.70;60.00;;;;;;5036290;28;20033;-77
2022/07/14 02:17:49;;;;;;;6.57;3.50;;;22.70;60.50;;;;;;5046496;28;20025;-77
2022/07/14 02:20:14;;;;;;;6.88;3.40;;;22.60;60.60;;;;;;5056317;28;20047;-78
2022/07/14 02:22:43;;;;;;;4.70;3.17;;;22.60;60.40;;;;;;5055140;28;20052;-78
2022/07/14 02:25:11;;;;;;;7.70;4.00;;;22.60;60.20;;;;;;5055813;28;20106;-78
2022/07/14 02:27:37;;;;;;;7.07;3.88;;;22.60;60.30;;;;;;5050263;28;20033;-78
2022/07/14 02:30:03;;;;;;;5.65;3.30;;;22.40;60.70;;;;;;5036100;28;20026;-78
2022/07/14 02:32:31;;;;;;;6.35;3.88;;;22.30;60.70;;;;;;5036301;28;20109;-78
2022/07/14 02:34:59;;;;;;;5.25;3.78;;;22.30;61.30;;;;;;5036176;28;20570;-77
2022/07/14 02:37:25;;;;;;;6.38;4.35;;;22.30;61.90;;;;;;5035962;28;20065;-77
2022/07/14 02:39:53;;;;;;;7.32;4.20;;;22.30;61.90;;;;;;5034512;28;20026;-77
2022/07/14 02:42:19;;;;;;;6.45;4.05;;;22.20;61.70;;;;;;5035380;28;20069;-77
2022/07/14 02:44:44;;;;;;;5.15;3.90;;;22.30;61.90;;;;;;5036098;28;20029;-78
2022/07/14 02:47:10;;;;;;;5.93;4.43;;;22.20;61.70;;;;;;5035783;28;20038;-77
2022/07/14 02:49:36;;;;;;;6.18;4.25;;;22.20;62.30;;;;;;5035780;28;20527;-77
2022/07/14 02:52:02;;;;;;;10.23;4.88;;;22.20;62.20;;;;;;5040618;28;20067;-77
2022/07/14 02:54:27;;;;;;;6.18;4.55;;;22.10;62.70;;;;;;5055553;28;20044;-77
2022/07/14 02:56:53;;;;;;;7.28;4.07;;;22.10;63.20;;;;;;5055614;28;20118;-77
2022/07/14 02:59:19;;;;;;;11.13;4.70;;;22.20;63.00;;;;;;5047533;28;20084;-77
2022/07/14 03:01:44;;;;;;;7.40;4.30;;;22.10;62.70;;;;;;5052904;28;20051;-77
2022/07/14 03:04:10;;;;;;;8.02;4.72;;;22.20;62.40;;;;;;5055414;28;20053;-77
2022/07/14 03:06:36;;;;;;;10.43;4.85;;;22.20;62.60;;;;;;5054224;28;20029;-77
2022/07/14 03:09:02;;;;;;;10.18;5.07;;;22.20;62.90;;;;;;5055472;28;20020;-77
2022/07/14 03:11:28;;;;;;;9.52;5.60;;;22.10;63.10;;;;;;5055454;28;20091;-77
2022/07/14 03:13:54;;;;;;;7.20;5.35;;;22.10;63.40;;;;;;5052639;28;20460;-77
2022/07/14 03:16:20;;;;;;;7.72;4.97;;;22.10;62.80;;;;;;5035239;28;20040;-77
2022/07/14 03:18:45;;;;;;;7.90;4.97;;;22.00;63.50;;;;;;5049640;28;20025;-77
2022/07/14 03:21:12;;;;;;;7.40;5.07;;;21.90;63.70;;;;;;5035163;28;20029;-77
2022/07/14 03:23:38;;;;;;;8.65;5.22;;;21.90;63.90;;;;;;5035399;28;20070;-77
2022/07/14 03:26:04;;;;;;;8.50;5.22;;;21.80;63.90;;;;;;5035334;28;20033;-77
2022/07/14 03:28:30;;;;;;;7.07;5.00;;;21.80;64.20;;;;;;5043633;28;20025;-77
2022/07/14 03:30:59;;;;;;;8.13;5.05;;;21.70;64.50;;;;;;5054186;28;20024;-77
2022/07/14 03:33:25;;;;;;;8.00;5.47;;;21.70;64.50;;;;;;5055169;28;20100;-77
2022/07/14 03:35:51;;;;;;;9.05;5.28;;;21.70;64.20;;;;;;5048448;28;20069;-77
2022/07/14 03:38:18;;;;;;;7.25;5.15;;;21.70;64.60;;;;;;5035174;28;20064;-77
2022/07/14 03:40:44;;;;;;;10.77;5.72;;;21.70;64.60;;;;;;5035010;28;20026;-77
2022/07/14 03:43:09;;;;;;;9.35;5.72;;;21.70;64.10;;;;;;5034966;28;20030;-77
2022/07/14 03:45:35;;;;;;;7.88;5.75;;;21.60;64.40;;;;;;5035341;28;20464;-77
2022/07/14 03:48:08;;;;;;;10.82;6.30;;;21.60;64.80;;;;;;5034962;28;20369;-77
2022/07/14 03:50:35;;;;;;;8.93;5.55;;;21.60;64.60;;;;;;5034999;28;20508;-77
2022/07/14 03:53:01;;;;;;;9.32;6.28;;;21.50;64.50;;;;;;5034799;28;20026;-77
2022/07/14 03:55:27;;;;;;;8.43;5.63;;;21.50;64.90;;;;;;5035043;28;20053;-77
2022/07/14 03:57:52;;;;;;;9.85;6.13;;;21.50;65.20;;;;;;5036468;28;20392;-78
2022/07/14 04:00:18;;;;;;;10.77;5.90;;;21.50;64.90;;;;;;5040612;28;20459;-77
2022/07/14 04:02:44;;;;;;;10.02;6.40;;;21.40;64.80;;;;;;5054739;28;20031;-77
2022/07/14 04:05:12;;;;;;;12.32;6.55;;;21.40;65.00;;;;;;5048954;28;20041;-78
2022/07/14 04:07:39;;;;;;;11.10;6.90;;;21.40;65.20;;;;;;5034985;28;20026;-77
2022/07/14 04:10:05;;;;;;;10.00;6.70;;;21.40;65.30;;;;;;5034799;28;20558;-77
2022/07/14 04:12:31;;;;;;;11.02;6.28;;;21.30;65.60;;;;;;5034614;28;20133;-77
2022/07/14 04:14:56;;;;;;;11.30;7.35;;;21.30;65.30;;;;;;5034474;28;20064;-77
2022/07/14 04:17:22;;;;;;;10.50;7.38;;;21.20;65.90;;;;;;5039853;28;20033;-77
2022/07/14 04:19:47;;;;;;;10.02;7.22;;;21.20;65.10;;;;;;5048840;28;20040;-77
2022/07/14 04:22:13;;;;;;;12.82;7.47;;;21.20;66.00;;;;;;5034815;28;20026;-77
2022/07/14 04:24:41;;;;;;;12.75;6.88;;;21.20;65.60;;;;;;5034750;28;20511;-77
2022/07/14 04:27:06;;;;;;;14.90;7.60;;;21.10;65.70;;;;;;5034545;28;20404;-77
2022/07/14 04:29:32;;;;;;;13.13;7.65;;;21.20;65.60;;;;;;5034530;28;20025;-77
2022/07/14 04:31:57;;;;;;;10.75;7.75;;;21.10;66.00;;;;;;5034537;28;20026;-77
2022/07/14 04:34:23;;;;;;;12.63;7.60;;;21.10;65.60;;;;;;5034551;28;20033;-77
2022/07/14 04:36:49;;;;;;;13.57;8.00;;;21.10;66.30;;;;;;5034504;28;20076;-77
2022/07/14 04:39:17;;;;;;;12.13;8.02;;;21.00;66.00;;;;;;5034834;28;20029;-77
2022/07/14 04:41:43;;;;;;;12.63;7.75;;;21.00;66.10;;;;;;5033625;28;20024;-77
2022/07/14 04:44:08;;;;;;;11.48;7.90;;;21.00;66.70;;;;;;5042300;28;20096;-77
2022/07/14 04:46:34;;;;;;;14.90;8.50;;;21.00;66.30;;;;;;5055600;28;20108;-77
2022/07/14 04:52:02;;;;;;;14.32;8.45;;;21.00;66.70;;;;;;5046320;28;20099;-77
2022/07/14 04:54:28;;;;;;;12.80;8.43;;;21.00;66.50;;;;;;5038446;28;20030;-77
2022/07/14 04:56:54;;;;;;;14.70;9.35;;;21.00;66.40;;;;;;5037710;28;20079;-77
2022/07/14 04:59:20;;;;;;;12.75;8.07;;;21.00;66.80;;;;;;5055103;28;20108;-77
2022/07/14 05:01:46;;;;;;;13.60;8.63;;;21.00;66.00;;;;;;5043005;28;20067;-77
2022/07/14 05:04:11;;;;;;;15.80;8.77;;;20.90;66.90;;;;;;5041249;28;20046;-77
2022/07/14 05:06:37;;;;;;;17.50;8.98;;;21.00;66.20;;;;;;5055199;28;20519;-77
2022/07/14 05:09:03;;;;;;;15.00;8.98;;;21.00;66.10;;;;;;5036294;28;20112;-77
2022/07/14 05:11:29;;;;;;;12.65;8.48;;;21.00;66.90;;;;;;5044286;28;20029;-77
2022/07/14 05:13:54;;;;;;;17.67;8.75;;;21.00;66.10;;;;;;5041026;28;20033;-77
2022/07/14 05:16:20;;;;;;;15.02;8.07;;;21.00;66.80;;;;;;5037561;28;20409;-77
2022/07/14 05:18:46;;;;;;;15.50;8.60;;;21.00;67.00;;;;;;5051067;28;20041;-77
2022/07/14 05:21:12;;;;;;;14.60;8.77;;;21.00;67.00;;;;;;5053897;28;20044;-77
2022/07/14 05:23:38;;;;;;;16.65;9.55;;;21.00;66.70;;;;;;5055665;28;20025;-77
2022/07/14 05:26:12;;;;;;;14.80;8.20;;;21.10;67.00;;;;;;5036151;28;20029;-77
2022/07/14 05:28:38;;;;;;;13.20;9.05;;;21.10;66.70;;;;;;5037222;28;20494;-77
2022/07/14 05:31:04;;;;;;;13.63;8.63;;;21.10;67.30;;;;;;5049945;28;20033;-77
2022/07/14 05:33:30;;;;;;;14.77;9.38;;;21.10;67.10;;;;;;5057238;28;20029;-77
2022/07/14 05:35:56;;;;;;;19.00;10.43;;;21.20;67.40;;;;;;5057178;28;20036;-77
2022/07/14 05:38:24;;;;;;;16.55;9.30;;;21.20;67.70;;;;;;5039835;28;20029;-77
2022/07/14 05:40:51;;;;;;;15.40;9.48;;;21.30;67.60;;;;;;5036969;28;20030;-77
2022/07/14 05:43:17;;;;;;;14.00;8.50;;;21.30;67.20;;;;;;5036872;28;21149;-77
2022/07/14 05:45:42;;;;;;;15.40;9.63;;;21.20;68.00;;;;;;5036787;28;20021;-77
2022/07/14 05:48:08;;;;;;;13.63;9.25;;;21.30;67.30;;;;;;5036962;28;20032;-77
2022/07/14 05:50:34;;;;;;;14.75;8.52;;;21.30;68.00;;;;;;5036923;28;20030;-77
2022/07/14 05:52:59;;;;;;;12.23;8.60;;;21.30;67.80;;;;;;5036839;28;20040;-77
2022/07/14 05:55:25;;;;;;;15.13;8.13;;;21.50;67.60;;;;;;5036846;28;20032;-77
2022/07/14 05:57:51;;;;;;;14.15;8.20;;;21.50;67.30;;;;;;5041043;28;20025;-77
2022/07/14 06:00:17;;;;;;;13.00;8.23;;;21.60;67.20;;;;;;5056384;28;20024;-77
2022/07/14 06:02:43;;;;;;;13.48;7.85;;;21.70;66.90;;;;;;5037226;28;20029;-77
2022/07/14 06:05:10;;;;;;;11.60;7.72;;;21.70;67.10;;;;;;5036149;28;20064;-77
2022/07/14 06:07:36;;;;;;;11.38;7.82;;;21.70;67.70;;;;;;5036495;28;20093;-77
2022/07/14 06:10:02;;;;;;;12.15;7.65;;;21.70;67.60;;;;;;5036467;28;20587;-77
2022/07/14 06:12:28;;;;;;;14.68;7.75;;;21.70;67.90;;;;;;5053191;28;20037;-77
2022/07/14 06:14:54;;;;;;;15.13;8.20;;;21.70;67.40;;;;;;5055192;28;20021;-77
2022/07/14 06:17:21;;;;;;;13.02;7.15;;;21.80;67.50;;;;;;5042810;28;20057;-77
2022/07/14 06:19:47;;;;;;;12.10;7.30;;;21.80;67.50;;;;;;5056266;28;20028;-77
2022/07/14 06:22:13;;;;;;;9.27;6.30;;;21.80;67.80;;;;;;5055826;28;20031;-77
2022/07/14 06:24:40;;;;;;;10.35;5.55;;;21.80;67.50;;;;;;5056365;28;20074;-77
2022/07/14 06:27:05;;;;;;;10.20;6.10;;;21.80;67.60;;;;;;5036378;28;20056;-77
2022/07/14 06:29:31;;;;;;;11.35;6.15;;;21.90;66.90;;;;;;5036119;28;20025;-77
2022/07/14 06:31:57;;;;;;;9.43;5.47;;;22.00;66.90;;;;;;5036136;28;20048;-77
2022/07/14 06:34:23;;;;;;;10.85;5.72;;;22.00;67.40;;;;;;5035953;28;20543;-77
2022/07/14 06:36:49;;;;;;;8.88;5.43;;;22.10;66.90;;;;;;5036126;28;20029;-77
2022/07/14 06:39:15;;;;;;;7.40;5.40;;;22.00;67.10;;;;;;5035584;28;20025;-77
2022/07/14 06:41:41;;;;;;;6.75;4.57;;;22.00;67.90;;;;;;5035911;28;20507;-77
2022/07/14 06:44:07;;;;;;;7.80;4.45;;;22.00;67.20;;;;;;5035784;28;20080;-77
2022/07/14 06:46:33;;;;;;;7.20;5.00;;;22.10;67.50;;;;;;5035946;28;20025;-78
2022/07/14 06:48:59;;;;;;;7.20;4.30;;;22.10;67.80;;;;;;5038305;28;20100;-77
2022/07/14 06:51:26;;;;;;;6.95;3.75;;;22.00;67.80;;;;;;5055529;28;20471;-77
2022/07/14 06:53:52;;;;;;;9.50;4.25;;;22.20;67.00;;;;;;5045777;28;20029;-77
2022/07/14 06:56:18;;;;;;;6.45;4.35;;;22.20;66.90;;;;;;5053320;28;20029;-77
2022/07/14 06:58:44;;;;;;;5.35;3.53;;;22.20;67.00;;;;;;5055310;28;20552;-77
2022/07/14 07:01:09;;;;;;;8.82;4.32;;;22.20;67.50;;;;;;5055461;28;20037;-77
2022/07/14 07:03:36;;;;;;;7.32;3.88;;;22.20;67.70;;;;;;5044270;28;20164;-77
2022/07/14 07:08:46;;;;;;;6.00;3.50;;;22.30;67.50;;;;;;5035570;28;20049;-78
2022/07/14 07:11:13;;;;;;;4.45;2.80;;;22.30;67.60;;;;;;5041217;28;20025;-78
2022/07/14 07:13:39;;;;;;;4.95;3.47;;;22.30;67.30;;;;;;5053829;28;20036;-77
2022/07/14 07:16:08;;;;;;;8.25;2.63;;;22.50;66.40;;;;;;5055295;28;20025;-77
2022/07/14 07:18:34;;;;;;;4.80;2.73;;;22.70;66.50;;;;;;5054089;28;20495;-77
2022/07/14 07:21:00;;;;;;;8.02;2.65;;;22.80;65.60;;;;;;5055137;28;20287;-77
2022/07/14 07:23:27;;;;;;;6.20;2.70;;;23.00;64.90;;;;;;5055194;28;20077;-77
2022/07/14 07:25:53;;;;;;;3.88;2.38;;;23.10;65.00;;;;;;5052473;28;20837;-77
2022/07/14 07:28:19;;;;;;;3.70;2.45;;;23.40;63.90;;;;;;5035352;28;20057;-78
2022/07/14 07:30:45;;;;;;;4.38;2.30;;;23.80;62.90;;;;;;5038581;28;20025;-78
2022/07/14 07:33:11;;;;;;;4.22;1.67;;;24.30;61.60;;;;;;5054917;28;20037;-78
2022/07/14 07:35:38;;;;;;;4.85;2.15;;;25.60;58.40;;;;;;5053654;28;20484;-78
2022/07/14 07:38:04;;;;;;;3.88;1.73;;;28.10;52.10;;;;;;5035283;28;20072;-79
2022/07/14 07:40:30;;;;;;;3.33;1.63;;;29.80;46.80;;;;;;5034810;28;20083;-79
2022/07/14 07:42:55;;;;;;;5.72;2.03;;;31.50;42.40;;;;;;5035619;28;20040;-79
2022/07/14 07:45:22;;;;;;;2.75;1.30;;;32.90;39.90;;;;;;5045879;28;20026;-79
2022/07/14 07:47:48;;;;;;;5.15;1.80;;;33.60;37.20;;;;;;5034958;28;20022;-79
2022/07/14 07:50:14;;;;;;;4.30;1.40;;;34.70;35.30;;;;;;5054352;28;20029;-80
2022/07/14 07:52:39;;;;;;;2.70;1.25;;;36.40;33.50;;;;;;5055092;28;20024;-79
2022/07/14 07:55:09;;;;;;;3.30;1.50;;;37.40;31.70;;;;;;5055116;28;20036;-79
2022/07/14 07:57:37;;;;;;;2.78;1.33;;;36.20;32.20;;;;;;5053977;28;20529;-79
2022/07/14 08:00:04;;;;;;;3.92;1.45;;;35.40;33.00;;;;;;5038364;28;20033;-79
2022/07/14 08:02:30;;;;;;;3.60;1.40;;;34.80;33.00;;;;;;5054862;28;20022;-79
2022/07/14 08:04:56;;;;;;;4.18;1.70;;;34.50;33.80;;;;;;5035865;28;20045;-79
2022/07/14 08:07:22;;;;;;;3.67;1.38;;;36.10;31.80;;;;;;5035051;28;20116;-79
2022/07/14 08:09:47;;;;;;;4.78;1.33;;;37.40;30.20;;;;;;5034607;28;20025;-79
2022/07/14 08:12:13;;;;;;;2.97;1.20;;;38.30;29.20;;;;;;5048462;28;20029;-80
2022/07/14 08:14:48;;;;;;;2.25;1.23;;;39.00;28.00;;;;;;5054789;28;20488;-79
2022/07/14 08:17:14;;;;;;;3.72;1.40;;;39.80;27.00;;;;;;5050790;28;20055;-80
2022/07/14 08:19:39;;;;;;;2.65;1.23;;;40.70;25.90;;;;;;5054748;28;20032;-79
2022/07/14 08:22:06;;;;;;;2.88;0.85;;;41.10;25.50;;;;;;5055229;28;20028;-80
2022/07/14 08:24:32;;;;;;;2.20;1.00;;;41.60;24.20;;;;;;5057929;28;20097;-80
2022/07/14 08:26:57;;;;;;;1.88;1.00;;;42.10;24.20;;;;;;5057667;28;20061;-80
2022/07/14 08:29:23;;;;;;;2.15;1.00;;;42.40;23.80;;;;;;5055506;28;20028;-80
2022/07/14 08:31:49;;;;;;;2.40;1.15;;;42.80;23.20;;;;;;5038403;28;20046;-79
2022/07/14 08:34:15;;;;;;;3.20;1.23;;;42.80;23.40;;;;;;5038395;28;20028;-80
2022/07/14 08:36:41;;;;;;;3.90;1.40;;;43.20;22.70;;;;;;5038457;28;20037;-79
2022/07/14 08:39:08;;;;;;;2.83;1.25;;;43.80;22.50;;;;;;5048492;28;20024;-80
2022/07/14 08:41:37;;;;;;;2.20;1.20;;;44.00;22.20;;;;;;5058057;28;20025;-80
2022/07/14 08:44:04;;;;;;;2.25;1.00;;;43.40;22.50;;;;;;5048176;28;20033;-80
2022/07/14 08:46:36;;;;;;;3.10;1.02;;;43.10;22.30;;;;;;5037847;28;20388;-80
2022/07/14 08:49:02;;;;;;;3.33;1.30;;;42.80;22.90;;;;;;5038209;28;20107;-79
2022/07/14 08:51:28;;;;;;;2.00;0.88;;;43.10;22.50;;;;;;5038021;28;20047;-80
2022/07/14 08:53:54;;;;;;;3.35;1.10;;;43.50;22.20;;;;;;5038001;28;20496;-80
2022/07/14 08:56:20;;;;;;;3.60;1.00;;;43.80;22.20;;;;;;5038008;28;20021;-79
2022/07/14 08:58:47;;;;;;;2.50;1.17;;;43.90;20.70;;;;;;5037844;28;20029;-80
2022/07/14 09:01:13;;;;;;;2.85;1.13;;;44.00;21.50;;;;;;5051033;28;20040;-80
2022/07/14 09:03:39;;;;;;;3.58;1.10;;;44.10;21.80;;;;;;5055344;28;20472;-79
2022/07/14 09:06:05;;;;;;;2.90;1.20;;;44.30;21.40;;;;;;5037630;28;20396;-80
2022/07/14 09:08:56;;;;;;;3.05;1.02;;;44.30;21.90;;;;;;5037913;28;20081;-79
2022/07/14 09:11:22;;;;;;;3.25;1.10;;;43.30;22.20;;;;;;5045463;28;20116;-79
2022/07/14 09:13:48;;;;;;;3.05;1.10;;;42.90;22.80;;;;;;5037694;28;20021;-80
2022/07/14 09:16:23;;;;;;;3.15;1.10;;;42.80;22.30;;;;;;5037486;28;20034;-80
2022/07/14 09:19:21;;;;;;;2.35;1.08;;;43.10;21.90;;;;;;5055996;28;20031;-80
2022/07/14 09:21:54;;;;;;;4.85;1.27;;;43.60;22.00;;;;;;5055580;28;20044;-80
2022/07/14 09:24:22;;;;;;;3.38;1.55;;;43.80;22.30;;;;;;5057314;28;20060;-80
2022/07/14 09:26:52;;;;;;;1.95;0.93;;;43.90;21.90;;;;;;5057388;28;20388;-79
2022/07/14 09:29:25;;;;;;;2.78;1.20;;;43.60;21.90;;;;;;5039703;28;20029;-80
2022/07/14 09:31:52;;;;;;;3.15;1.13;;;43.50;22.10;;;;;;5037400;28;20551;-80
2022/07/14 09:34:27;;;;;;;4.70;1.25;;;43.40;21.60;;;;;;5036230;28;20017;-79
2022/07/14 09:37:07;;;;;;;3.63;1.48;;;43.90;22.40;;;;;;5037188;28;20417;-80
2022/07/14 09:39:33;;;;;;;3.05;1.33;;;43.90;22.20;;;;;;5036165;28;20466;-80
2022/07/14 09:42:00;;;;;;;1.90;1.05;;;43.40;22.20;;;;;;5036902;28;20021;-79
2022/07/14 09:44:25;;;;;;;3.28;1.17;;;43.60;21.80;;;;;;5043572;28;20033;-79
2022/07/14 09:46:57;;;;;;;3.58;1.25;;;43.80;22.00;;;;;;5035804;28;20548;-80
2022/07/14 09:49:24;;;;;;;3.28;1.00;;;44.10;21.10;;;;;;5037197;28;20033;-80
2022/07/14 09:51:54;;;;;;;3.63;1.17;;;44.30;21.70;;;;;;5037028;28;20550;-80
2022/07/14 09:54:40;;;;;;;2.70;1.55;;;44.30;21.60;;;;;;5036760;28;20033;-79
2022/07/14 09:57:18;;;;;;;1.40;1.05;;;44.40;20.60;;;;;;5036789;28;20504;-79
2022/07/14 09:59:45;;;;;;;2.35;1.20;;;44.30;20.80;;;;;;5037484;28;20037;-80
2022/07/14 10:02:16;;;;;;;3.25;0.98;;;44.30;21.20;;;;;;5037815;28;20451;-79
2022/07/14 10:04:43;;;;;;;1.75;0.90;;;44.20;21.40;;;;;;5036399;28;20037;-79
2022/07/14 10:07:10;;;;;;;3.47;1.07;;;44.00;21.20;;;;;;5036848;28;20065;-79
2022/07/14 10:09:38;;;;;;;2.40;1.00;;;44.00;20.00;;;;;;5036658;28;20117;-79
2022/07/14 10:12:05;;;;;;;;;;;43.80;21.00;;;;;;5050456;28;20028;-80
2022/07/14 10:14:31;;;;;;;2.45;1.15;;;43.60;20.90;;;;;;5055148;28;20345;-79
2022/07/14 10:16:58;;;;;;;3.83;1.08;;;43.60;21.20;;;;;;5056371;28;20025;-80
2022/07/14 10:19:25;;;;;;;4.30;1.10;;;43.10;21.10;;;;;;5055974;28;20029;-79
2022/07/14 10:21:55;;;;;;;2.85;1.10;;;43.10;22.10;;;;;;5048303;28;20354;-80
2022/07/14 10:24:25;;;;;;;4.47;1.10;;;43.20;21.70;;;;;;5036359;28;20029;-80
2022/07/14 10:26:53;;;;;;;2.40;1.00;;;42.90;21.60;;;;;;5036190;28;20057;-80
2022/07/14 10:29:19;;;;;;;2.13;0.90;;;43.10;21.90;;;;;;5036222;28;20081;-79
2022/07/14 10:32:07;;;;;;;2.75;0.93;;;42.80;21.80;;;;;;5036213;28;20091;-80
2022/07/14 10:34:36;;;;;;;3.33;1.08;;;42.60;22.00;;;;;;5035941;28;20464;-80
2022/07/14 10:37:13;;;;;;;3.58;0.75;;;42.00;22.30;;;;;;5035782;28;20034;-80
2022/07/14 10:40:08;;;;;;;3.83;1.20;;;41.90;22.70;;;;;;5035955;28;20485;-80
2022/07/14 10:43:05;;;;;;;3.13;0.93;;;41.20;22.80;;;;;;5035696;28;20034;-79
2022/07/14 10:45:31;;;;;;;3.00;0.73;;;40.40;23.30;;;;;;5046904;28;20037;-80
2022/07/14 10:47:57;;;;;;;3.80;1.00;;;39.00;24.70;;;;;;5055933;28;20069;-79
2022/07/14 10:50:28;;;;;;;3.97;0.95;;;38.50;25.60;;;;;;5055802;28;20071;-80
2022/07/14 10:52:53;;;;;;;3.13;0.73;;;37.80;26.10;;;;;;5041372;28;20025;-80
2022/07/14 10:55:26;;;;;;;3.40;0.68;;;37.20;27.10;;;;;;5036212;28;21189;-79
2022/07/14 10:58:03;;;;;;;4.55;1.00;;;36.90;26.80;;;;;;5042038;28;20037;-79
2022/07/14 11:00:41;;;;;;;2.33;0.70;;;36.60;28.10;;;;;;5055466;28;20028;-79
2022/07/14 11:03:18;;;;;;;3.42;1.02;;;36.40;28.20;;;;;;5051407;28;20052;-80
2022/07/14 11:06:07;;;;;;;2.65;0.85;;;36.10;27.80;;;;;;5035700;28;20038;-79
2022/07/14 11:08:41;;;;;;;2.75;0.90;;;35.80;28.20;;;;;;5034164;28;20049;-80
2022/07/14 11:11:22;;;;;;;3.22;0.75;;;35.50;28.50;;;;;;5041203;28;20078;-79
2022/07/14 11:14:00;;;;;;;4.00;1.13;;;35.60;29.00;;;;;;5054990;28;20025;-79
2022/07/14 11:16:45;;;;;;;2.45;0.73;;;35.30;29.20;;;;;;5054121;28;20029;-79
2022/07/14 11:19:24;;;;;;;4.40;0.82;;;35.30;29.20;;;;;;5035258;28;20037;-79
2022/07/14 11:22:09;;;;;;;3.92;1.80;;;35.00;30.20;;;;;;5035379;28;20100;-79
2022/07/14 11:24:35;;;;;;;1.95;1.15;;;35.00;29.80;;;;;;5035518;28;20553;-79
2022/07/14 11:27:38;;;;;;;2.53;1.00;;;34.60;30.10;;;;;;5035288;28;20512;-79
2022/07/14 11:30:17;;;;;;;4.38;0.90;;;34.10;30.30;;;;;;5034928;28;20118;-79
2022/07/14 11:32:43;;;;;;;3.05;1.00;;;34.00;30.40;;;;;;5036536;28;20037;-79
2022/07/14 11:38:00;;;;;;;5.57;0.93;;;34.00;31.10;;;;;;5035329;28;20117;-79
2022/07/14 11:40:49;;;;;;;4.80;1.05;;;33.60;30.40;;;;;;5035312;28;20395;-79
2022/07/14 11:43:30;;;;;;;3.15;1.08;;;33.40;30.90;;;;;;5038143;28;20025;-79
2022/07/14 11:46:00;;;;;;;2.72;0.80;;;33.50;31.70;;;;;;5055129;28;20068;-79
2022/07/14 11:48:31;;;;;;;3.80;1.48;;;33.70;31.30;;;;;;5054765;28;20021;-79
2022/07/14 11:51:20;;;;;;;2.97;1.02;;;33.70;30.90;;;;;;5038104;28;20388;-79
2022/07/14 11:53:51;;;;;;;3.17;1.02;;;33.70;30.70;;;;;;5036816;28;20045;-79
2022/07/14 11:56:23;;;;;;;6.18;1.13;;;33.70;30.40;;;;;;5035586;28;20033;-79
2022/07/14 11:58:50;;;;;;;3.65;0.80;;;33.70;30.50;;;;;;5038852;28;20079;-79
2022/07/14 12:01:16;;;;;;;2.08;0.85;;;33.80;29.50;;;;;;5052645;28;20403;-79
2022/07/14 12:03:43;;;;;;;1.85;0.90;;;33.60;29.10;;;;;;5058696;28;20025;-79
2022/07/14 12:06:09;;;;;;;2.30;1.00;;;33.50;29.70;;;;;;5058675;28;20478;-79
2022/07/14 12:08:39;;;;;;;3.00;1.20;;;33.50;30.30;;;;;;5056791;28;20116;-79
2022/07/14 12:11:12;;;;;;;3.85;1.50;;;33.30;30.40;;;;;;5053248;28;20021;-79
2022/07/14 12:13:45;;;;;;;3.22;0.90;;;33.10;31.00;;;;;;5045736;28;20029;-79
2022/07/14 12:16:11;;;;;;;5.25;1.00;;;32.90;31.00;;;;;;5058528;28;20070;-79
2022/07/14 12:18:37;;;;;;;1.95;0.85;;;32.80;30.80;;;;;;5055490;28;20025;-79
2022/07/14 12:21:03;;;;;;;2.88;1.05;;;32.80;30.80;;;;;;5058680;28;20029;-79
2022/07/14 12:23:28;;;;;;;2.92;1.00;;;32.60;30.40;;;;;;5040375;28;20045;-79
2022/07/14 12:26:00;;;;;;;4.80;1.42;;;32.60;30.20;;;;;;5038290;28;20029;-79
2022/07/14 12:28:27;;;;;;;1.80;0.80;;;32.30;30.40;;;;;;5038570;28;20022;-79
2022/07/14 12:30:57;;;;;;;3.63;0.95;;;32.40;30.90;;;;;;5043654;28;20056;-79
2022/07/14 12:33:36;;;;;;;4.53;1.13;;;32.50;30.80;;;;;;5058346;28;20025;-79
2022/07/14 12:36:03;;;;;;;2.70;1.00;;;32.40;31.10;;;;;;5046410;28;21387;-79
2022/07/14 12:38:32;;;;;;;3.78;1.52;;;32.50;31.20;;;;;;5058288;28;20029;-79
2022/07/14 12:41:00;;;;;;;4.47;0.93;;;32.40;31.20;;;;;;5058185;28;20029;-79
2022/07/14 12:43:28;;;;;;;3.50;0.93;;;32.30;31.90;;;;;;5053593;28;20056;-79
2022/07/14 12:46:02;;;;;;;1.50;0.70;;;32.40;31.10;;;;;;5038137;28;20017;-79
2022/07/14 12:48:32;;;;;;;3.60;1.02;;;32.30;30.20;;;;;;5038193;28;20742;-79
2022/07/14 12:51:23;;;;;;;2.33;0.80;;;32.20;29.60;;;;;;5037944;28;20036;-79
2022/07/14 12:54:07;;;;;;;2.55;0.65;;;32.10;29.80;;;;;;5053238;28;20025;-79
2022/07/14 12:56:37;;;;;;;5.03;1.45;;;32.00;28.80;;;;;;5038258;28;20030;-79
2022/07/14 12:59:07;;;;;;;3.78;1.10;;;32.00;29.40;;;;;;5037856;28;20028;-80
2022/07/14 13:01:51;;;;;;;6.15;0.80;;;32.00;30.50;;;;;;5053604;28;20029;-79